Terminal Aerodrome Forecast
Issued by NWS

Home | Current Version | Previous Version | Text Only | Print | Product List | Glossary On
Versions: 1 2 3 4 5 6 7 8 9 10 11 12 13 14
000
FTUS45 KMSO 301126
TAFSMN
TAF
KSMN 301126Z 3012/3112 18010KT P6SM VCSH OVC100
     FM301700 25015G25KT P6SM BKN100
     FM310200 36006KT P6SM BKN100
      AMD LTD TO CLD VIS AND WIND=

USA.gov is the U.S. government's official web portal to all federal, state and local government web resources and services.